Time,TemperatureF,DewpointF,PressureIn,WindDirection,WindDirectionDegrees,WindSpeedMPH,WindSpeedGustMPH,Humidity,HourlyPrecipIn,Conditions,Clouds,dailyrainin,SoftwareType,DateUTC
2013-03-08 00:02:00,40.3,38.1,30.13,North,-999,-999.0,4.0,92,0.00,,,0.00,meteohub,2013-03-08 08:02:00,
2013-03-08 00:07:00,40.3,38.1,30.13,WNW,292,0.0,1.0,92,0.00,,,0.00,meteohub,2013-03-08 08:07:00,
2013-03-08 00:12:00,40.3,38.1,30.12,WNW,292,0.0,1.0,92,0.00,,,0.00,meteohub,2013-03-08 08:12:00,
2013-03-08 00:17:00,40.1,37.9,30.12,WNW,292,0.0,2.0,92,0.00,,,0.00,meteohub,2013-03-08 08:17:00,
2013-03-08 00:22:00,39.9,37.8,30.12,WNW,292,0.0,2.0,92,0.00,,,0.00,meteohub,2013-03-08 08:22:00,
2013-03-08 00:27:00,39.9,37.8,30.12,WNW,292,0.0,4.0,92,0.00,,,0.00,meteohub,2013-03-08 08:27:00,
2013-03-08 00:32:00,39.9,37.8,30.12,WNW,292,0.0,4.0,92,0.00,,,0.00,meteohub,2013-03-08 08:32:00,
2013-03-08 00:38:00,39.7,37.6,30.12,WNW,300,0.0,2.0,92,0.00,,,0.00,meteohub,2013-03-08 08:38:00,
2013-03-08 00:43:00,39.7,37.6,30.12,NW,314,0.0,2.0,92,0.00,,,0.00,meteohub,2013-03-08 08:43:00,
2013-03-08 00:48:00,39.7,37.6,30.12,NW,315,4.0,4.0,92,0.00,,,0.00,meteohub,2013-03-08 08:48:00,
2013-03-08 00:53:00,39.7,37.6,30.12,NW,309,2.0,4.0,92,0.00,,,0.00,meteohub,2013-03-08 08:53:00,
2013-03-08 00:58:00,39.6,37.4,30.12,NW,309,0.0,6.0,92,0.00,,,0.00,meteohub,2013-03-08 08:58:00,
2013-03-08 01:03:00,39.4,37.2,30.12,NW,309,0.0,6.0,92,0.00,,,0.00,meteohub,2013-03-08 09:03:00,
2013-03-08 01:08:00,39.2,37.0,30.12,NW,309,0.0,6.0,92,0.00,,,0.00,meteohub,2013-03-08 09:08:00,
2013-03-08 01:13:00,39.0,36.9,30.12,NW,312,2.0,4.0,92,0.00,,,0.00,meteohub,2013-03-08 09:13:00,
2013-03-08 01:18:00,39.0,36.9,30.12,NNW,329,0.0,4.0,92,0.00,,,0.00,meteohub,2013-03-08 09:18:00,
2013-03-08 01:24:00,38.8,36.7,30.12,NNW,329,0.0,5.0,92,0.00,,,0.00,meteohub,2013-03-08 09:24:00,
2013-03-08 01:29:00,38.8,36.7,30.12,NNW,329,0.0,5.0,92,0.00,,,0.00,meteohub,2013-03-08 09:29:00,
2013-03-08 01:34:00,38.7,36.5,30.12,NNW,329,0.0,1.0,92,0.00,,,0.00,meteohub,2013-03-08 09:34:00,
2013-03-08 01:39:00,38.7,36.9,30.12,NNW,329,0.0,4.0,93,0.00,,,0.00,meteohub,2013-03-08 09:39:00,
2013-03-08 01:44:00,38.5,36.7,30.12,NNW,329,1.0,4.0,93,0.00,,,0.00,meteohub,2013-03-08 09:44:00,
2013-03-08 01:49:00,38.5,36.3,30.12,NNW,329,1.0,4.0,92,0.00,,,0.00,meteohub,2013-03-08 09:49:00,
2013-03-08 01:54:00,38.5,36.3,30.12,NNW,329,0.0,4.0,92,0.00,,,0.00,meteohub,2013-03-08 09:54:00,
2013-03-08 01:59:00,38.3,36.5,30.12,NNW,329,1.0,4.0,93,0.00,,,0.00,meteohub,2013-03-08 09:59:00,
2013-03-08 02:04:00,38.1,36.3,30.12,NNW,329,2.0,4.0,93,0.00,,,0.00,meteohub,2013-03-08 10:04:00,
2013-03-08 02:09:00,38.1,36.3,30.11,NW,320,0.0,4.0,93,0.00,,,0.00,meteohub,2013-03-08 10:09:00,
2013-03-08 02:15:00,38.1,36.3,30.11,NW,320,1.0,4.0,93,0.00,,,0.00,meteohub,2013-03-08 10:15:00,
2013-03-08 02:20:00,38.1,36.3,30.11,NW,320,1.0,4.0,93,0.00,,,0.00,meteohub,2013-03-08 10:20:00,
2013-03-08 02:25:00,37.9,36.1,30.11,NW,320,0.0,4.0,93,0.00,,,0.00,meteohub,2013-03-08 10:25:00,
2013-03-08 02:30:00,37.9,36.1,30.11,NW,320,1.0,4.0,93,0.00,,,0.00,meteohub,2013-03-08 10:30:00,
2013-03-08 02:35:00,37.8,36.0,30.11,NW,320,2.0,4.0,93,0.00,,,0.00,meteohub,2013-03-08 10:35:00,
2013-03-08 02:40:00,37.8,36.0,30.11,NW,320,2.0,4.0,93,0.00,,,0.00,meteohub,2013-03-08 10:40:00,
2013-03-08 02:45:00,37.8,36.0,30.11,NW,320,0.0,4.0,93,0.00,,,0.00,meteohub,2013-03-08 10:45:00,
2013-03-08 02:50:00,37.6,35.8,30.11,NW,320,1.0,5.0,93,0.00,,,0.00,meteohub,2013-03-08 10:50:00,
2013-03-08 02:55:00,37.6,35.8,30.11,NW,320,0.0,5.0,93,0.00,,,0.00,meteohub,2013-03-08 10:55:00,
2013-03-08 03:00:00,37.6,35.8,30.11,NW,320,0.0,5.0,93,0.00,,,0.00,meteohub,2013-03-08 11:00:00,
2013-03-08 03:05:00,37.6,35.8,30.11,NW,320,0.0,4.0,93,0.00,,,0.00,meteohub,2013-03-08 11:05:00,
2013-03-08 03:10:00,37.6,35.8,30.11,NW,320,0.0,2.0,93,0.00,,,0.00,meteohub,2013-03-08 11:10:00,
2013-03-08 03:16:00,37.6,35.8,30.12,NW,320,2.0,2.0,93,0.00,,,0.00,meteohub,2013-03-08 11:16:00,
2013-03-08 03:21:00,37.6,35.8,30.12,NW,320,0.0,2.0,93,0.00,,,0.00,meteohub,2013-03-08 11:21:00,
2013-03-08 03:26:00,37.8,36.0,30.12,NW,320,0.0,2.0,93,0.00,,,0.00,meteohub,2013-03-08 11:26:00,
2013-03-08 03:31:00,37.8,36.0,30.12,NW,320,4.0,4.0,93,0.00,,,0.00,meteohub,2013-03-08 11:31:00,
2013-03-08 03:36:00,37.8,36.0,30.12,NW,317,4.0,4.0,93,0.00,,,0.00,meteohub,2013-03-08 11:36:00,
2013-03-08 03:41:00,37.8,36.0,30.12,NW,317,0.0,4.0,93,0.00,,,0.00,meteohub,2013-03-08 11:41:00,
2013-03-08 03:46:00,37.8,36.0,30.12,NW,317,0.0,4.0,93,0.00,,,0.00,meteohub,2013-03-08 11:46:00,
2013-03-08 03:51:00,37.6,35.8,30.12,NW,317,0.0,4.0,93,0.00,,,0.00,meteohub,2013-03-08 11:51:00,
2013-03-08 03:56:00,37.8,36.0,30.11,NW,317,0.0,4.0,93,0.00,,,0.00,meteohub,2013-03-08 11:56:00,
2013-03-08 04:01:00,37.9,36.1,30.11,NW,317,0.0,5.0,93,0.00,,,0.00,meteohub,2013-03-08 12:01:00,
2013-03-08 04:06:00,38.1,36.3,30.11,NW,317,0.0,5.0,93,0.00,,,0.00,meteohub,2013-03-08 12:06:00,
2013-03-08 04:12:00,38.1,36.3,30.11,NW,317,1.0,4.0,93,0.00,,,0.00,meteohub,2013-03-08 12:12:00,
2013-03-08 04:17:00,38.1,36.3,30.11,NW,317,0.0,2.0,93,0.00,,,0.00,meteohub,2013-03-08 12:17:00,
2013-03-08 04:22:00,38.3,36.5,30.11,NW,317,0.0,2.0,93,0.00,,,0.00,meteohub,2013-03-08 12:22:00,
2013-03-08 04:27:00,38.3,36.5,30.11,NW,317,0.0,2.0,93,0.00,,,0.00,meteohub,2013-03-08 12:27:00,
2013-03-08 04:32:00,38.5,36.7,30.11,NW,317,0.0,2.0,93,0.00,,,0.00,meteohub,2013-03-08 12:32:00,
2013-03-08 04:37:00,38.5,36.7,30.11,NW,317,0.0,2.0,93,0.00,,,0.00,meteohub,2013-03-08 12:37:00,
2013-03-08 04:42:00,38.5,36.7,30.11,NW,317,0.0,2.0,93,0.00,,,0.00,meteohub,2013-03-08 12:42:00,
2013-03-08 04:47:00,38.5,36.7,30.11,NW,317,1.0,2.0,93,0.00,,,0.00,meteohub,2013-03-08 12:47:00,
2013-03-08 04:52:00,38.5,36.7,30.11,NW,317,0.0,4.0,93,0.00,,,0.00,meteohub,2013-03-08 12:52:00,
2013-03-08 04:57:00,38.5,36.7,30.11,NW,317,1.0,4.0,93,0.00,,,0.00,meteohub,2013-03-08 12:57:00,
2013-03-08 05:02:00,38.5,36.7,30.11,NW,317,0.0,4.0,93,0.00,,,0.00,meteohub,2013-03-08 13:02:00,
2013-03-08 05:07:00,38.5,36.7,30.11,NW,317,0.0,4.0,93,0.00,,,0.00,meteohub,2013-03-08 13:07:00,
2013-03-08 05:12:00,38.5,36.7,30.11,NW,317,2.0,4.0,93,0.00,,,0.00,meteohub,2013-03-08 13:12:00,
2013-03-08 05:17:00,38.7,36.9,30.11,NW,317,0.0,4.0,93,0.00,,,0.00,meteohub,2013-03-08 13:17:00,
2013-03-08 05:22:00,38.7,36.9,30.11,NW,317,0.0,4.0,93,0.00,,,0.00,meteohub,2013-03-08 13:22:00,
2013-03-08 05:27:00,38.7,36.9,30.12,NW,317,0.0,4.0,93,0.00,,,0.00,meteohub,2013-03-08 13:27:00,
2013-03-08 05:32:00,38.7,36.9,30.12,NW,317,0.0,2.0,93,0.00,,,0.00,meteohub,2013-03-08 13:32:00,
2013-03-08 05:37:00,38.7,36.9,30.12,NW,317,0.0,2.0,93,0.00,,,0.00,meteohub,2013-03-08 13:37:00,
2013-03-08 05:42:00,38.7,36.9,30.12,NW,317,0.0,4.0,93,0.00,,,0.00,meteohub,2013-03-08 13:42:00,
2013-03-08 05:47:00,38.7,36.9,30.12,NW,317,0.0,4.0,93,0.00,,,0.00,meteohub,2013-03-08 13:47:00,
2013-03-08 05:52:00,38.7,36.9,30.12,NW,317,1.0,4.0,93,0.00,,,0.00,meteohub,2013-03-08 13:52:00,
2013-03-08 05:57:00,38.7,36.9,30.12,NW,317,0.0,2.0,93,0.00,,,0.00,meteohub,2013-03-08 13:57:00,
2013-03-08 06:02:00,38.7,36.9,30.12,NW,317,0.0,2.0,93,0.00,,,0.00,meteohub,2013-03-08 14:02:00,
2013-03-08 06:07:00,38.7,36.9,30.12,NW,317,0.0,2.0,93,0.00,,,0.00,meteohub,2013-03-08 14:07:00,
2013-03-08 06:12:00,38.5,36.7,30.12,NW,317,0.0,1.0,93,0.00,,,0.00,meteohub,2013-03-08 14:12:00,
2013-03-08 06:17:00,38.5,36.7,30.12,NW,317,0.0,1.0,93,0.00,,,0.00,meteohub,2013-03-08 14:17:00,
2013-03-08 06:22:00,38.5,36.7,30.12,NW,317,0.0,1.0,93,0.00,,,0.00,meteohub,2013-03-08 14:22:00,
2013-03-08 06:27:00,38.5,36.7,30.12,NW,317,0.0,1.0,93,0.00,,,0.00,meteohub,2013-03-08 14:27:00,
2013-03-08 06:32:00,38.5,36.7,30.12,NW,317,0.0,1.0,93,0.00,,,0.00,meteohub,2013-03-08 14:32:00,
2013-03-08 06:37:00,38.3,36.5,30.12,NW,317,0.0,1.0,93,0.00,,,0.00,meteohub,2013-03-08 14:37:00,
2013-03-08 06:42:00,38.3,36.5,30.12,NW,317,0.0,0.0,93,0.00,,,0.00,meteohub,2013-03-08 14:42:00,
2013-03-08 06:47:00,38.1,36.3,30.12,NW,317,0.0,2.0,93,0.00,,,0.00,meteohub,2013-03-08 14:47:00,
2013-03-08 06:52:00,38.1,36.3,30.12,NW,317,0.0,2.0,93,0.00,,,0.00,meteohub,2013-03-08 14:52:00,
2013-03-08 06:57:00,38.1,36.3,30.12,NW,317,0.0,1.0,93,0.00,,,0.00,meteohub,2013-03-08 14:57:00,
2013-03-08 07:02:00,37.9,36.1,30.12,NW,317,0.0,1.0,93,0.00,,,0.00,meteohub,2013-03-08 15:02:00,
2013-03-08 07:07:00,37.9,36.1,30.12,NW,317,0.0,1.0,93,0.00,,,0.00,meteohub,2013-03-08 15:07:00,
2013-03-08 07:12:00,37.9,36.1,30.12,NW,317,0.0,1.0,93,0.00,,,0.00,meteohub,2013-03-08 15:12:00,
2013-03-08 07:17:00,37.8,36.0,30.12,NW,317,0.0,0.0,93,0.00,,,0.00,meteohub,2013-03-08 15:17:00,
2013-03-08 07:22:00,37.8,36.0,30.12,NW,317,0.0,1.0,93,0.00,,,0.00,meteohub,2013-03-08 15:22:00,
2013-03-08 07:27:00,37.8,36.0,30.12,NW,317,0.0,4.0,93,0.00,,,0.00,meteohub,2013-03-08 15:27:00,
2013-03-08 07:32:00,37.8,36.0,30.12,NW,317,0.0,4.0,93,0.00,,,0.00,meteohub,2013-03-08 15:32:00,
2013-03-08 07:37:00,37.9,36.1,30.12,NW,317,0.0,4.0,93,0.00,,,0.00,meteohub,2013-03-08 15:37:00,
2013-03-08 07:42:00,38.1,36.3,30.12,NW,317,0.0,2.0,93,0.00,,,0.00,meteohub,2013-03-08 15:42:00,
2013-03-08 07:47:00,38.5,36.7,30.12,NW,317,0.0,2.0,93,0.00,,,0.00,meteohub,2013-03-08 15:47:00,
2013-03-08 07:52:00,38.7,36.9,30.12,NW,317,0.0,2.0,93,0.00,,,0.00,meteohub,2013-03-08 15:52:00,
2013-03-08 07:57:00,38.8,37.0,30.12,NW,321,2.0,2.0,93,0.00,,,0.00,meteohub,2013-03-08 15:57:00,
2013-03-08 08:02:00,39.0,37.2,30.12,NW,321,2.0,5.0,93,0.00,,,0.00,meteohub,2013-03-08 16:02:00,
2013-03-08 08:07:00,39.0,37.2,30.12,NW,321,4.0,5.0,93,0.00,,,0.00,meteohub,2013-03-08 16:07:00,
2013-03-08 08:12:00,39.0,36.9,30.12,NW,321,1.0,5.0,92,0.00,,,0.00,meteohub,2013-03-08 16:12:00,
2013-03-08 08:18:00,39.2,37.4,30.12,NNE,15,0.0,4.0,93,0.00,,,0.00,meteohub,2013-03-08 16:18:00,
2013-03-08 08:23:00,39.6,37.8,30.12,NNE,15,1.0,4.0,93,0.00,,,0.00,meteohub,2013-03-08 16:23:00,
2013-03-08 08:28:00,39.7,37.9,30.13,NNE,15,1.0,4.0,93,0.00,,,0.00,meteohub,2013-03-08 16:28:00,
2013-03-08 08:33:00,40.1,38.3,30.13,NNE,15,0.0,3.0,93,0.00,,,0.00,meteohub,2013-03-08 16:33:00,
2013-03-08 08:38:00,40.3,38.1,30.13,NNE,19,0.0,3.0,92,0.00,,,0.00,meteohub,2013-03-08 16:38:00,
2013-03-08 08:44:00,40.6,38.5,30.13,NNE,19,0.0,3.0,92,0.00,,,0.00,meteohub,2013-03-08 16:44:00,
2013-03-08 08:49:00,40.8,38.7,30.13,ESE,121,4.0,4.0,92,0.00,,,0.00,meteohub,2013-03-08 16:49:00,
2013-03-08 08:54:00,41.2,38.8,30.14,SE,134,4.0,5.0,91,0.00,,,0.00,meteohub,2013-03-08 16:54:00,
2013-03-08 09:00:00,41.5,39.2,30.13,SE,134,2.0,6.0,91,0.00,,,0.00,meteohub,2013-03-08 17:00:00,
2013-03-08 09:05:00,41.7,39.2,30.13,SE,134,2.0,5.0,91,0.00,,,0.00,meteohub,2013-03-08 17:05:00,
2013-03-08 09:10:00,42.1,39.6,30.13,SE,134,1.0,5.0,91,0.00,,,0.00,meteohub,2013-03-08 17:10:00,
2013-03-08 09:16:00,42.3,39.7,30.14,SE,134,0.0,4.0,91,0.00,,,0.00,meteohub,2013-03-08 17:16:00,
2013-03-08 09:21:00,42.6,40.1,30.14,SE,134,1.0,2.0,91,0.00,,,0.00,meteohub,2013-03-08 17:21:00,
2013-03-08 09:26:00,43.0,40.3,30.14,SE,134,2.0,2.0,90,0.00,,,0.00,meteohub,2013-03-08 17:26:00,
2013-03-08 09:31:00,43.2,40.1,30.14,SE,134,2.0,4.0,89,0.00,,,0.00,meteohub,2013-03-08 17:31:00,
2013-03-08 09:36:00,43.3,40.1,30.14,SE,134,4.0,4.0,88,0.00,,,0.00,meteohub,2013-03-08 17:36:00,
2013-03-08 09:41:00,43.5,39.9,30.14,SE,134,4.0,5.0,87,0.00,,,0.00,meteohub,2013-03-08 17:41:00,
2013-03-08 09:46:00,43.7,39.7,30.14,SE,134,6.0,6.0,86,0.00,,,0.00,meteohub,2013-03-08 17:46:00,
2013-03-08 09:52:00,43.7,39.7,30.14,SE,134,7.0,7.0,86,0.00,,,0.00,meteohub,2013-03-08 17:52:00,
2013-03-08 09:57:00,43.5,39.6,30.14,SE,132,8.0,8.0,86,0.00,,,0.00,meteohub,2013-03-08 17:57:00,
2013-03-08 10:02:00,43.3,39.4,30.14,SE,138,7.0,8.0,86,0.00,,,0.00,meteohub,2013-03-08 18:02:00,
2013-03-08 10:07:00,43.3,39.7,30.15,SE,130,8.0,8.0,87,0.00,,,0.00,meteohub,2013-03-08 18:07:00,
2013-03-08 10:12:00,43.5,39.9,30.15,SE,132,7.0,9.0,87,0.00,,,0.00,meteohub,2013-03-08 18:12:00,
2013-03-08 10:17:00,43.5,39.9,30.15,SE,136,7.0,9.0,87,0.00,,,0.00,meteohub,2013-03-08 18:17:00,
2013-03-08 10:22:00,43.3,39.7,30.14,SE,136,6.0,9.0,87,0.00,,,0.00,meteohub,2013-03-08 18:22:00,
2013-03-08 10:27:00,43.5,39.9,30.14,SE,133,6.0,9.0,87,0.00,,,0.00,meteohub,2013-03-08 18:27:00,
2013-03-08 10:32:00,43.5,39.9,30.14,SE,140,7.0,8.0,87,0.00,,,0.00,meteohub,2013-03-08 18:32:00,
2013-03-08 10:37:00,43.5,39.9,30.14,SE,138,6.0,8.0,87,0.00,,,0.00,meteohub,2013-03-08 18:37:00,
2013-03-08 10:42:00,43.7,40.1,30.14,SE,144,7.0,9.0,87,0.00,,,0.00,meteohub,2013-03-08 18:42:00,
2013-03-08 10:47:00,43.7,40.1,30.14,SE,128,7.0,9.0,87,0.00,,,0.00,meteohub,2013-03-08 18:47:00,
2013-03-08 10:52:00,43.9,39.9,30.15,SE,136,8.0,9.0,86,0.00,,,0.00,meteohub,2013-03-08 18:52:00,
2013-03-08 10:57:00,43.9,39.9,30.15,SE,138,8.0,9.0,86,0.00,,,0.00,meteohub,2013-03-08 18:57:00,
2013-03-08 11:02:00,44.1,40.1,30.14,SE,138,7.0,9.0,86,0.00,,,0.00,meteohub,2013-03-08 19:02:00,
2013-03-08 11:07:00,44.1,40.1,30.15,SE,139,7.0,9.0,86,0.00,,,0.00,meteohub,2013-03-08 19:07:00,
2013-03-08 11:12:00,44.1,40.1,30.15,SE,136,8.0,9.0,86,0.00,,,0.00,meteohub,2013-03-08 19:12:00,
2013-03-08 11:17:00,44.1,40.1,30.14,SE,140,8.0,9.0,86,0.00,,,0.00,meteohub,2013-03-08 19:17:00,
2013-03-08 11:22:00,44.2,40.1,30.14,SE,138,5.0,9.0,85,0.00,,,0.00,meteohub,2013-03-08 19:22:00,
2013-03-08 11:28:00,44.2,40.1,30.14,SE,136,7.0,8.0,85,0.00,,,0.00,meteohub,2013-03-08 19:28:00,
2013-03-08 11:33:00,44.4,40.3,30.14,SE,140,7.0,8.0,85,0.00,,,0.00,meteohub,2013-03-08 19:33:00,
2013-03-08 11:38:00,44.4,40.3,30.14,SE,139,7.0,8.0,85,0.00,,,0.00,meteohub,2013-03-08 19:38:00,
2013-03-08 11:43:00,44.4,40.3,30.14,SE,136,8.0,9.0,85,0.00,,,0.00,meteohub,2013-03-08 19:43:00,
2013-03-08 11:49:00,44.4,39.9,30.15,SE,134,9.0,9.0,84,0.00,,,0.00,meteohub,2013-03-08 19:49:00,
2013-03-08 11:54:00,44.6,40.1,30.15,SE,136,8.0,11.0,84,0.00,,,0.00,meteohub,2013-03-08 19:54:00,
2013-03-08 11:59:00,44.8,40.3,30.15,SE,140,7.0,12.0,84,0.00,,,0.00,meteohub,2013-03-08 19:59:00,
2013-03-08 12:05:00,44.8,40.3,30.15,SE,138,8.0,12.0,84,0.00,,,0.00,meteohub,2013-03-08 20:05:00,
2013-03-08 12:10:00,44.6,40.1,30.15,SE,144,7.0,11.0,84,0.00,,,0.00,meteohub,2013-03-08 20:10:00,
2013-03-08 12:15:00,44.6,40.1,30.15,SE,136,8.0,11.0,84,0.00,,,0.00,meteohub,2013-03-08 20:15:00,
2013-03-08 12:21:00,44.8,40.3,30.15,SE,138,8.0,10.0,84,0.00,,,0.00,meteohub,2013-03-08 20:21:00,
2013-03-08 12:26:00,44.8,40.3,30.15,SSE,165,8.0,10.0,84,0.00,,,0.00,meteohub,2013-03-08 20:26:00,
2013-03-08 12:31:00,45.0,40.5,30.15,SE,144,6.0,10.0,84,0.00,,,0.00,meteohub,2013-03-08 20:31:00,
2013-03-08 12:37:00,45.1,40.3,30.15,SE,143,7.0,10.0,83,0.00,,,0.00,meteohub,2013-03-08 20:37:00,
2013-03-08 12:42:00,45.5,40.1,30.15,SSE,156,6.0,10.0,81,0.00,,,0.00,meteohub,2013-03-08 20:42:00,
2013-03-08 12:47:00,45.9,40.1,30.15,SSE,154,5.0,10.0,80,0.00,,,0.00,meteohub,2013-03-08 20:47:00,
2013-03-08 12:52:00,46.0,40.3,30.15,SSW,192,2.0,9.0,80,0.00,,,0.00,meteohub,2013-03-08 20:52:00,
2013-03-08 12:58:00,46.0,40.3,30.15,ESE,105,4.0,9.0,80,0.00,,,0.00,meteohub,2013-03-08 20:58:00,
2013-03-08 13:03:00,46.2,40.5,30.15,ESE,121,5.0,9.0,80,0.00,,,0.00,meteohub,2013-03-08 21:03:00,
2013-03-08 13:08:00,46.0,40.3,30.15,SE,136,8.0,8.0,80,0.00,,,0.00,meteohub,2013-03-08 21:08:00,
2013-03-08 13:13:00,46.0,40.3,30.15,SE,131,5.0,9.0,80,0.00,,,0.00,meteohub,2013-03-08 21:13:00,
2013-03-08 13:19:00,46.0,40.5,30.15,SE,136,8.0,12.0,81,0.00,,,0.00,meteohub,2013-03-08 21:19:00,
2013-03-08 13:24:00,45.7,40.1,30.15,SE,135,7.0,12.0,81,0.00,,,0.00,meteohub,2013-03-08 21:24:00,
2013-03-08 13:30:00,45.3,40.1,30.15,SE,130,7.0,11.0,82,0.00,,,0.00,meteohub,2013-03-08 21:30:00,
2013-03-08 13:35:00,45.3,40.5,30.15,SE,128,7.0,11.0,83,0.00,,,0.00,meteohub,2013-03-08 21:35:00,
2013-03-08 13:40:00,45.3,40.5,30.15,SE,138,7.0,9.0,83,0.00,,,0.00,meteohub,2013-03-08 21:40:00,
2013-03-08 13:45:00,45.5,40.6,30.15,SSE,154,4.0,9.0,83,0.00,,,0.00,meteohub,2013-03-08 21:45:00,
2013-03-08 13:50:00,45.9,40.3,30.15,ESE,119,4.0,9.0,81,0.00,,,0.00,meteohub,2013-03-08 21:50:00,
2013-03-08 13:56:00,46.4,40.6,30.15,ESE,121,1.0,9.0,80,0.00,,,0.00,meteohub,2013-03-08 21:56:00,
2013-03-08 14:01:00,46.9,40.5,30.15,North,350,1.0,8.0,78,0.00,,,0.00,meteohub,2013-03-08 22:01:00,
2013-03-08 14:06:00,47.1,40.6,30.15,SE,133,4.0,6.0,78,0.00,,,0.00,meteohub,2013-03-08 22:06:00,
2013-03-08 14:12:00,47.1,40.6,30.15,SSE,149,6.0,7.0,78,0.00,,,0.00,meteohub,2013-03-08 22:12:00,
2013-03-08 14:17:00,47.5,41.0,30.15,SE,130,4.0,8.0,78,0.00,,,0.00,meteohub,2013-03-08 22:17:00,
2013-03-08 14:22:00,47.5,40.6,30.15,ESE,112,5.0,8.0,77,0.00,,,0.00,meteohub,2013-03-08 22:22:00,
2013-03-08 14:27:00,47.1,40.6,30.15,ESE,114,1.0,7.0,78,0.00,,,0.00,meteohub,2013-03-08 22:27:00,
2013-03-08 14:32:00,47.1,40.6,30.15,ESE,114,0.0,5.0,78,0.00,,,0.00,meteohub,2013-03-08 22:32:00,
2013-03-08 14:37:00,47.5,41.0,30.15,ESE,121,4.0,5.0,78,0.00,,,0.00,meteohub,2013-03-08 22:37:00,
2013-03-08 14:42:00,47.5,40.6,30.15,ENE,66,2.0,5.0,77,0.00,,,0.00,meteohub,2013-03-08 22:42:00,
2013-03-08 14:47:00,47.5,40.6,30.15,NE,42,0.0,5.0,77,0.00,,,0.00,meteohub,2013-03-08 22:47:00,
2013-03-08 14:53:00,47.5,40.6,30.15,SSE,150,4.0,5.0,77,0.00,,,0.00,meteohub,2013-03-08 22:53:00,
2013-03-08 14:58:00,47.5,40.6,30.15,SE,140,4.0,6.0,77,0.00,,,0.00,meteohub,2013-03-08 22:58:00,
2013-03-08 15:03:00,47.5,40.6,30.15,SSE,161,2.0,6.0,77,0.00,,,0.00,meteohub,2013-03-08 23:03:00,
2013-03-08 15:08:00,47.7,40.8,30.15,SE,144,5.0,6.0,77,0.00,,,0.00,meteohub,2013-03-08 23:08:00,
2013-03-08 15:14:00,47.8,40.6,30.15,SSE,163,4.0,6.0,76,0.00,,,0.00,meteohub,2013-03-08 23:14:00,
2013-03-08 15:19:00,47.8,40.3,30.15,SSE,165,0.0,7.0,75,0.00,,,0.00,meteohub,2013-03-08 23:19:00,
2013-03-08 15:24:00,47.8,39.6,30.15,SE,141,5.0,7.0,73,0.00,,,0.00,meteohub,2013-03-08 23:24:00,
2013-03-08 15:29:00,47.8,39.9,30.15,ESE,115,4.0,7.0,74,0.00,,,0.00,meteohub,2013-03-08 23:29:00,
2013-03-08 15:34:00,47.8,40.6,30.15,SE,126,4.0,6.0,76,0.00,,,0.00,meteohub,2013-03-08 23:34:00,
2013-03-08 15:40:00,47.3,41.2,30.15,SE,142,5.0,6.0,79,0.00,,,0.00,meteohub,2013-03-08 23:40:00,
2013-03-08 15:45:00,47.1,41.0,30.15,SE,142,4.0,7.0,79,0.00,,,0.00,meteohub,2013-03-08 23:45:00,
2013-03-08 15:50:00,47.3,41.2,30.15,SE,142,4.0,7.0,79,0.00,,,0.00,meteohub,2013-03-08 23:50:00,
2013-03-08 15:55:00,47.3,41.2,30.15,SE,138,1.0,5.0,79,0.00,,,0.00,meteohub,2013-03-08 23:55:00,
2013-03-08 16:01:00,47.1,41.4,30.15,SE,138,0.0,5.0,80,0.00,,,0.00,meteohub,2013-03-09 00:01:00,
2013-03-08 16:06:00,46.9,41.2,30.15,SE,136,6.0,6.0,80,0.00,,,0.00,meteohub,2013-03-09 00:06:00,
2013-03-08 16:11:00,46.4,40.6,30.15,SE,136,5.0,7.0,80,0.00,,,0.00,meteohub,2013-03-09 00:11:00,
2013-03-08 16:16:00,46.2,40.6,30.15,SE,136,4.0,7.0,81,0.00,,,0.00,meteohub,2013-03-09 00:16:00,
2013-03-08 16:21:00,46.2,41.0,30.15,SE,136,1.0,7.0,82,0.00,,,0.00,meteohub,2013-03-09 00:21:00,
2013-03-08 16:26:00,46.2,41.0,30.15,SE,136,0.0,6.0,82,0.00,,,0.00,meteohub,2013-03-09 00:26:00,
2013-03-08 16:32:00,46.2,41.0,30.15,SE,136,0.0,5.0,82,0.00,,,0.00,meteohub,2013-03-09 00:32:00,
2013-03-08 16:37:00,46.2,41.0,30.15,SE,136,0.0,4.0,82,0.00,,,0.00,meteohub,2013-03-09 00:37:00,
2013-03-08 16:42:00,46.0,40.8,30.15,SE,136,0.0,4.0,82,0.00,,,0.00,meteohub,2013-03-09 00:42:00,
2013-03-08 16:47:00,46.0,40.8,30.15,SE,136,0.0,0.0,82,0.00,,,0.00,meteohub,2013-03-09 00:47:00,
2013-03-08 16:52:00,46.0,40.8,30.15,SE,136,0.0,0.0,82,0.00,,,0.00,meteohub,2013-03-09 00:52:00,
2013-03-08 16:57:00,45.9,40.3,30.15,SE,136,0.0,0.0,81,0.00,,,0.00,meteohub,2013-03-09 00:57:00,
2013-03-08 17:02:00,45.9,40.1,30.15,SE,136,0.0,0.0,80,0.00,,,0.00,meteohub,2013-03-09 01:02:00,
2013-03-08 17:07:00,45.9,39.7,30.15,South,174,0.0,1.0,79,0.00,,,0.00,meteohub,2013-03-09 01:07:00,
2013-03-08 17:12:00,46.0,40.5,30.15,South,174,0.0,1.0,81,0.00,,,0.00,meteohub,2013-03-09 01:12:00,
2013-03-08 17:17:00,45.9,39.7,30.16,South,174,0.0,1.0,79,0.00,,,0.00,meteohub,2013-03-09 01:17:00,
2013-03-08 17:22:00,45.9,39.4,30.15,South,174,0.0,0.0,78,0.00,,,0.00,meteohub,2013-03-09 01:22:00,
2013-03-08 17:27:00,45.7,38.8,30.15,South,174,0.0,1.0,77,0.00,,,0.00,meteohub,2013-03-09 01:27:00,
2013-03-08 17:32:00,45.7,38.5,30.16,South,174,0.0,2.0,76,0.00,,,0.00,meteohub,2013-03-09 01:32:00,
2013-03-08 17:37:00,45.7,38.5,30.16,South,174,0.0,2.0,76,0.00,,,0.00,meteohub,2013-03-09 01:37:00,
2013-03-08 17:42:00,45.5,38.3,30.16,South,174,0.0,2.0,76,0.00,,,0.00,meteohub,2013-03-09 01:42:00,
2013-03-08 17:47:00,45.3,38.1,30.17,South,174,0.0,1.0,76,0.00,,,0.00,meteohub,2013-03-09 01:47:00,
2013-03-08 17:52:00,45.3,38.5,30.17,South,174,0.0,1.0,77,0.00,,,0.00,meteohub,2013-03-09 01:52:00,
2013-03-08 17:57:00,45.3,39.2,30.17,South,174,0.0,0.0,79,0.00,,,0.00,meteohub,2013-03-09 01:57:00,
2013-03-08 18:02:00,45.3,39.9,30.17,South,174,0.0,0.0,81,0.00,,,0.00,meteohub,2013-03-09 02:02:00,
2013-03-08 18:07:00,45.3,40.1,30.17,South,174,0.0,0.0,82,0.00,,,0.00,meteohub,2013-03-09 02:07:00,
2013-03-08 18:12:00,45.1,39.9,30.17,South,174,0.0,0.0,82,0.00,,,0.00,meteohub,2013-03-09 02:12:00,
2013-03-08 18:17:00,45.0,39.7,30.17,South,174,0.0,0.0,82,0.00,,,0.00,meteohub,2013-03-09 02:17:00,
2013-03-08 18:22:00,44.8,39.6,30.17,South,174,0.0,0.0,82,0.00,,,0.00,meteohub,2013-03-09 02:22:00,
2013-03-08 18:27:00,44.2,39.0,30.17,South,174,0.0,0.0,82,0.00,,,0.00,meteohub,2013-03-09 02:27:00,
2013-03-08 18:32:00,44.1,38.8,30.18,South,174,0.0,0.0,82,0.00,,,0.00,meteohub,2013-03-09 02:32:00,
2013-03-08 18:37:00,43.7,38.5,30.18,South,174,0.0,0.0,82,0.00,,,0.00,meteohub,2013-03-09 02:37:00,
2013-03-08 18:42:00,43.3,38.5,30.18,South,174,0.0,0.0,83,0.00,,,0.00,meteohub,2013-03-09 02:42:00,
2013-03-08 18:47:00,43.2,38.3,30.18,South,174,0.0,0.0,83,0.00,,,0.00,meteohub,2013-03-09 02:47:00,
2013-03-08 18:52:00,43.0,38.1,30.18,South,174,0.0,0.0,83,0.00,,,0.00,meteohub,2013-03-09 02:52:00,
2013-03-08 18:57:00,42.6,37.8,30.18,South,174,0.0,0.0,83,0.00,,,0.00,meteohub,2013-03-09 02:57:00,
2013-03-08 19:02:00,42.4,37.6,30.18,South,174,0.0,1.0,83,0.00,,,0.00,meteohub,2013-03-09 03:02:00,
2013-03-08 19:07:00,42.3,37.8,30.19,South,174,0.0,1.0,84,0.00,,,0.00,meteohub,2013-03-09 03:07:00,
2013-03-08 19:12:00,42.3,37.8,30.19,South,174,0.0,0.0,84,0.00,,,0.00,meteohub,2013-03-09 03:12:00,
2013-03-08 19:17:00,42.3,38.1,30.19,South,174,0.0,0.0,85,0.00,,,0.00,meteohub,2013-03-09 03:17:00,
2013-03-08 19:23:00,42.1,37.9,30.19,South,174,0.0,0.0,85,0.00,,,0.00,meteohub,2013-03-09 03:23:00,
2013-03-08 19:28:00,41.9,37.8,30.19,South,174,0.0,0.0,85,0.00,,,0.00,meteohub,2013-03-09 03:28:00,
2013-03-08 19:33:00,41.7,37.6,30.19,South,174,0.0,0.0,85,0.00,,,0.00,meteohub,2013-03-09 03:33:00,
2013-03-08 19:38:00,41.7,37.8,30.19,South,174,0.0,1.0,86,0.00,,,0.00,meteohub,2013-03-09 03:38:00,
2013-03-08 19:43:00,41.5,37.6,30.19,South,174,0.0,1.0,86,0.00,,,0.00,meteohub,2013-03-09 03:43:00,
2013-03-08 19:48:00,41.4,37.6,30.19,South,174,0.0,1.0,86,0.00,,,0.00,meteohub,2013-03-09 03:48:00,
2013-03-08 19:54:00,41.4,37.8,30.19,South,174,0.0,2.0,87,0.00,,,0.00,meteohub,2013-03-09 03:54:00,
2013-03-08 19:59:00,41.2,37.6,30.19,South,174,0.0,2.0,87,0.00,,,0.00,meteohub,2013-03-09 03:59:00,
2013-03-08 20:04:00,41.0,37.4,30.19,South,174,0.0,2.0,87,0.00,,,0.00,meteohub,2013-03-09 04:04:00,
2013-03-08 20:09:00,40.8,37.2,30.19,South,174,2.0,2.0,87,0.00,,,0.00,meteohub,2013-03-09 04:09:00,
2013-03-08 20:14:00,40.8,37.2,30.20,South,174,0.0,2.0,87,0.00,,,0.00,meteohub,2013-03-09 04:14:00,
2013-03-08 20:20:00,40.6,37.4,30.19,WNW,290,2.0,4.0,88,0.00,,,0.00,meteohub,2013-03-09 04:20:00,
2013-03-08 20:25:00,40.5,37.2,30.19,NNW,332,0.0,5.0,88,0.00,,,0.00,meteohub,2013-03-09 04:25:00,
2013-03-08 20:30:00,40.5,37.2,30.19,NNW,332,0.0,5.0,88,0.00,,,0.00,meteohub,2013-03-09 04:30:00,
2013-03-08 20:35:00,40.3,37.0,30.19,NNW,332,0.0,5.0,88,0.00,,,0.00,meteohub,2013-03-09 04:35:00,
2013-03-08 20:40:00,40.1,36.9,30.19,NNW,332,0.0,1.0,88,0.00,,,0.00,meteohub,2013-03-09 04:40:00,
2013-03-08 20:45:00,39.9,36.9,30.19,NNW,333,5.0,5.0,89,0.00,,,0.00,meteohub,2013-03-09 04:45:00,
2013-03-08 20:50:00,39.9,36.9,30.20,NW,323,0.0,5.0,89,0.00,,,0.00,meteohub,2013-03-09 04:50:00,
2013-03-08 20:55:00,39.9,36.9,30.20,NW,323,0.0,5.0,89,0.00,,,0.00,meteohub,2013-03-09 04:55:00,
2013-03-08 21:00:00,39.7,36.7,30.20,NW,323,0.0,5.0,89,0.00,,,0.00,meteohub,2013-03-09 05:00:00,
2013-03-08 21:01:00,39.7,36.7,30.20,NW,323,2.0,5.0,89,0.00,,,0.00,meteohub,2013-03-09 05:01:00,
2013-03-08 21:04:00,39.7,36.7,30.20,NW,323,0.0,5.0,89,0.00,,,0.00,meteohub,2013-03-09 05:04:00,
2013-03-08 21:09:00,39.6,36.5,30.20,NW,323,0.0,4.0,89,0.00,,,0.00,meteohub,2013-03-09 05:09:00,
2013-03-08 21:15:00,39.6,36.5,30.20,NW,323,0.0,2.0,89,0.00,,,0.00,meteohub,2013-03-09 05:15:00,
2013-03-08 21:20:00,39.4,36.5,30.20,NW,323,0.0,4.0,89,0.00,,,0.00,meteohub,2013-03-09 05:20:00,
2013-03-08 21:26:00,39.4,36.5,30.21,NW,323,2.0,4.0,89,0.00,,,0.00,meteohub,2013-03-09 05:26:00,
2013-03-08 21:31:00,39.0,36.1,30.21,NW,323,2.0,4.0,89,0.00,,,0.00,meteohub,2013-03-09 05:31:00,
2013-03-08 21:36:00,39.0,36.1,30.21,NW,323,0.0,4.0,89,0.00,,,0.00,meteohub,2013-03-09 05:36:00,
2013-03-08 21:41:00,38.8,36.1,30.21,NW,323,0.0,4.0,90,0.00,,,0.00,meteohub,2013-03-09 05:41:00,
2013-03-08 21:47:00,38.8,36.1,30.21,NW,323,2.0,4.0,90,0.00,,,0.00,meteohub,2013-03-09 05:47:00,
2013-03-08 21:52:00,38.7,36.0,30.21,NW,323,0.0,4.0,90,0.00,,,0.00,meteohub,2013-03-09 05:52:00,
2013-03-08 21:57:00,38.7,36.0,30.21,NW,323,0.0,4.0,90,0.00,,,0.00,meteohub,2013-03-09 05:57:00,
2013-03-08 22:02:00,38.5,35.8,30.21,NW,323,0.0,4.0,90,0.00,,,0.00,meteohub,2013-03-09 06:02:00,
2013-03-08 22:07:00,38.5,35.8,30.22,NW,323,0.0,4.0,90,0.00,,,0.00,meteohub,2013-03-09 06:07:00,
2013-03-08 22:12:00,38.5,35.8,30.22,NW,323,0.0,4.0,90,0.00,,,0.00,meteohub,2013-03-09 06:12:00,
2013-03-08 22:17:00,38.5,35.8,30.22,NW,323,0.0,5.0,90,0.00,,,0.00,meteohub,2013-03-09 06:17:00,
2013-03-08 22:22:00,38.3,35.6,30.22,NW,323,0.0,5.0,90,0.00,,,0.00,meteohub,2013-03-09 06:22:00,
2013-03-08 22:27:00,38.1,35.4,30.22,NW,323,0.0,5.0,90,0.00,,,0.00,meteohub,2013-03-09 06:27:00,
2013-03-08 22:32:00,38.1,35.4,30.22,NW,323,0.0,4.0,90,0.00,,,0.00,meteohub,2013-03-09 06:32:00,
2013-03-08 22:37:00,38.1,35.8,30.22,NW,323,0.0,2.0,91,0.00,,,0.00,meteohub,2013-03-09 06:37:00,
2013-03-08 22:42:00,37.9,35.6,30.22,NW,323,1.0,4.0,91,0.00,,,0.00,meteohub,2013-03-09 06:42:00,
2013-03-08 22:47:00,37.9,35.6,30.23,NW,323,0.0,5.0,91,0.00,,,0.00,meteohub,2013-03-09 06:47:00,
2013-03-08 22:52:00,37.9,35.2,30.23,NW,323,1.0,5.0,90,0.00,,,0.00,meteohub,2013-03-09 06:52:00,
2013-03-08 22:57:00,37.9,35.2,30.23,NW,325,4.0,6.0,90,0.00,,,0.00,meteohub,2013-03-09 06:57:00,
2013-03-08 23:02:00,37.9,35.2,30.23,NW,324,1.0,6.0,90,0.00,,,0.00,meteohub,2013-03-09 07:02:00,
2013-03-08 23:07:00,37.8,35.1,30.23,NW,325,1.0,6.0,90,0.00,,,0.00,meteohub,2013-03-09 07:07:00,
2013-03-08 23:12:00,37.8,35.1,30.23,NNW,327,2.0,5.0,90,0.00,,,0.00,meteohub,2013-03-09 07:12:00,
2013-03-08 23:17:00,37.6,35.2,30.23,NNW,327,1.0,5.0,91,0.00,,,0.00,meteohub,2013-03-09 07:17:00,
2013-03-08 23:22:00,37.6,35.2,30.23,NNW,327,2.0,5.0,91,0.00,,,0.00,meteohub,2013-03-09 07:22:00,
2013-03-08 23:27:00,37.6,35.2,30.24,NNW,327,0.0,5.0,91,0.00,,,0.00,meteohub,2013-03-09 07:27:00,
2013-03-08 23:32:00,37.6,35.2,30.24,NNW,327,4.0,5.0,91,0.00,,,0.00,meteohub,2013-03-09 07:32:00,
2013-03-08 23:37:00,37.6,35.2,30.24,NNW,327,1.0,5.0,91,0.00,,,0.00,meteohub,2013-03-09 07:37:00,
2013-03-08 23:42:00,37.4,35.1,30.24,NNW,327,0.0,5.0,91,0.00,,,0.00,meteohub,2013-03-09 07:42:00,
2013-03-08 23:47:00,37.2,34.5,30.24,NNW,327,1.0,5.0,90,0.00,,,0.00,meteohub,2013-03-09 07:47:00,
2013-03-08 23:52:00,37.2,34.9,30.25,NNW,327,0.0,5.0,91,0.00,,,0.00,meteohub,2013-03-09 07:52:00,
2013-03-08 23:57:00,37.0,34.7,30.24,NNW,327,1.0,2.0,91,0.00,,,0.00,meteohub,2013-03-09 07:57:00,